createdAt,value
2022-12-24T00:01:14.121Z,2.83
2022-12-24T00:03:42.205Z,3.10
2022-12-24T00:06:16.773Z,3.03
2022-12-24T00:08:46.247Z,2.23
2022-12-24T00:11:14.441Z,2.80
2022-12-24T00:13:42.371Z,2.10
2022-12-24T00:16:10.306Z,2.43
2022-12-24T00:18:43.546Z,3.57
2022-12-24T00:21:14.264Z,2.20
2022-12-24T00:23:42.355Z,2.97
2022-12-24T00:26:11.780Z,3.33
2022-12-24T00:28:39.771Z,3.07
2022-12-24T00:31:15.626Z,1.90
2022-12-24T00:33:44.073Z,2.77
2022-12-24T00:36:12.099Z,2.93
2022-12-24T00:38:40.600Z,3.00
2022-12-24T00:41:25.013Z,2.70
2022-12-24T00:43:54.225Z,2.30
2022-12-24T00:46:22.235Z,2.80
2022-12-24T00:48:50.383Z,2.43
2022-12-24T00:51:20.233Z,2.13
2022-12-24T00:53:48.531Z,3.20
2022-12-24T00:56:17.953Z,2.50
2022-12-24T00:58:46.083Z,2.53
2022-12-24T01:01:14.436Z,2.90
2022-12-24T01:03:42.520Z,2.53
2022-12-24T01:06:11.426Z,2.63
2022-12-24T01:08:39.629Z,2.93
2022-12-24T01:11:09.662Z,2.50
2022-12-24T01:13:39.900Z,1.93
2022-12-24T01:16:16.018Z,2.60
2022-12-24T01:18:44.299Z,3.03
2022-12-24T01:21:12.192Z,2.30
2022-12-24T01:23:40.108Z,1.90
2022-12-24T01:26:08.017Z,2.10
2022-12-24T01:28:35.975Z,2.07
2022-12-24T01:31:12.275Z,2.30
2022-12-24T01:33:40.232Z,2.60
2022-12-24T01:36:08.373Z,2.53
2022-12-24T01:38:36.412Z,2.93
2022-12-24T01:41:21.961Z,2.70
2022-12-24T01:43:49.928Z,2.90
2022-12-24T01:46:22.236Z,2.63
2022-12-24T01:48:54.074Z,2.60
2022-12-24T01:51:27.604Z,3.10
2022-12-24T01:53:59.538Z,2.30
2022-12-24T01:56:29.547Z,2.70
2022-12-24T01:59:01.522Z,2.73
2022-12-24T02:01:30.845Z,2.70
2022-12-24T02:03:59.124Z,2.53
2022-12-24T02:06:27.289Z,2.50
2022-12-24T02:08:56.709Z,2.63
2022-12-24T02:11:24.625Z,2.40
2022-12-24T02:13:57.985Z,2.40
2022-12-24T02:16:38.417Z,3.53
2022-12-24T02:19:24.721Z,2.43
2022-12-24T02:21:58.463Z,2.70
2022-12-24T02:24:56.926Z,2.90
2022-12-24T02:27:45.943Z,3.10
2022-12-24T02:30:19.441Z,3.00
2022-12-24T02:33:09.664Z,2.93
2022-12-24T02:35:46.634Z,3.23
2022-12-24T02:38:18.614Z,2.40
2022-12-24T02:40:53.148Z,2.30
2022-12-24T02:43:24.243Z,2.57
2022-12-24T02:45:59.416Z,2.60
2022-12-24T02:48:30.000Z,2.67
2022-12-24T02:51:02.219Z,2.60
2022-12-24T02:53:30.365Z,3.23
2022-12-24T02:56:26.862Z,2.97
2022-12-24T02:59:23.821Z,2.60
2022-12-24T03:02:00.212Z,3.00
2022-12-24T03:04:42.064Z,3.07
2022-12-24T03:07:21.184Z,2.03
2022-12-24T03:10:01.977Z,2.27
2022-12-24T03:12:33.969Z,2.77
2022-12-24T03:15:03.423Z,3.30
2022-12-24T03:17:35.681Z,2.43
2022-12-24T03:20:05.109Z,1.90
2022-12-24T03:22:35.263Z,2.50
2022-12-24T03:25:04.268Z,2.63
2022-12-24T03:27:34.284Z,2.40
2022-12-24T03:30:04.186Z,2.83
2022-12-24T03:32:34.113Z,2.20
2022-12-24T03:35:02.359Z,3.20
2022-12-24T03:37:30.212Z,2.80
2022-12-24T03:39:58.593Z,2.40
2022-12-24T03:42:26.525Z,3.10
2022-12-24T03:44:54.387Z,2.77
2022-12-24T03:47:22.270Z,2.77
2022-12-24T03:49:51.595Z,3.10
2022-12-24T03:52:19.452Z,2.50
2022-12-24T03:54:47.355Z,2.37
2022-12-24T03:57:15.311Z,3.27
2022-12-24T03:59:43.200Z,3.30
2022-12-24T04:02:11.167Z,2.83
2022-12-24T04:04:39.140Z,2.90
2022-12-24T04:07:08.500Z,2.53
2022-12-24T04:09:36.397Z,2.53
2022-12-24T04:12:04.499Z,3.10
2022-12-24T04:14:32.378Z,3.13
2022-12-24T04:17:00.326Z,2.60
2022-12-24T04:19:28.483Z,2.83
2022-12-24T04:21:56.333Z,2.30
2022-12-24T04:24:25.738Z,2.90
2022-12-24T04:26:53.645Z,2.50
2022-12-24T04:29:21.537Z,2.70
2022-12-24T04:31:49.479Z,2.47
2022-12-24T04:34:17.387Z,4.23
2022-12-24T04:36:45.311Z,2.93
2022-12-24T04:39:13.286Z,2.70
2022-12-24T04:41:42.626Z,2.30
2022-12-24T04:44:10.948Z,3.40
2022-12-24T04:46:38.824Z,2.63
2022-12-24T04:49:06.779Z,1.90
2022-12-24T04:51:34.813Z,2.40
2022-12-24T04:54:02.651Z,2.40
2022-12-24T04:56:32.603Z,2.60
2022-12-24T04:59:02.463Z,2.63
2022-12-24T05:01:33.001Z,2.30
2022-12-24T05:04:02.391Z,2.30
2022-12-24T05:06:32.624Z,1.93
2022-12-24T05:09:01.321Z,3.27
2022-12-24T05:11:29.856Z,2.57
2022-12-24T05:13:58.001Z,2.60
2022-12-24T05:16:27.498Z,3.20
2022-12-24T05:18:55.645Z,3.13
2022-12-24T05:21:25.070Z,3.20
2022-12-24T05:24:11.391Z,3.30
2022-12-24T05:26:42.403Z,3.20
2022-12-24T05:29:13.039Z,2.47
2022-12-24T05:31:43.473Z,2.77
2022-12-24T05:34:12.286Z,2.93
2022-12-24T05:36:40.492Z,2.20
2022-12-24T05:39:15.203Z,3.00
2022-12-24T05:41:44.340Z,2.97
2022-12-24T05:44:12.276Z,2.90
2022-12-24T05:46:40.305Z,2.50
2022-12-24T05:49:09.634Z,2.90
2022-12-24T05:51:37.878Z,2.57
2022-12-24T05:54:06.055Z,2.50
2022-12-24T05:56:33.965Z,2.90
2022-12-24T05:59:01.935Z,2.83
2022-12-24T06:01:30.061Z,2.90
2022-12-24T06:03:58.842Z,4.40
2022-12-24T06:06:29.344Z,2.70
2022-12-24T06:08:57.518Z,3.93
2022-12-24T06:11:27.809Z,3.40
2022-12-24T06:13:56.775Z,3.20
2022-12-24T06:16:26.590Z,3.30
2022-12-24T06:18:54.980Z,3.97
2022-12-24T06:21:22.868Z,2.70
2022-12-24T06:23:52.485Z,3.77
2022-12-24T06:26:23.317Z,3.40
2022-12-24T06:28:52.151Z,3.23
2022-12-24T06:31:22.504Z,3.40
2022-12-24T06:33:51.240Z,2.70
2022-12-24T06:36:21.122Z,4.77
2022-12-24T06:38:50.006Z,3.10
2022-12-24T06:41:20.307Z,2.67
2022-12-24T06:43:49.969Z,3.73
2022-12-24T06:46:18.952Z,4.07
2022-12-24T06:48:47.325Z,4.70
2022-12-24T06:51:18.889Z,3.73
2022-12-24T06:53:46.843Z,3.20
2022-12-24T06:56:15.437Z,2.93
2022-12-24T06:58:45.009Z,2.77
2022-12-24T07:01:15.394Z,3.33
2022-12-24T07:03:43.670Z,3.60
2022-12-24T07:06:18.821Z,4.27
2022-12-24T07:08:46.901Z,3.87
2022-12-24T07:11:14.802Z,3.07
2022-12-24T07:13:44.110Z,3.80
2022-12-24T07:16:12.116Z,4.20
2022-12-24T07:18:40.088Z,3.80
2022-12-24T07:21:08.194Z,4.17
2022-12-24T07:23:36.133Z,3.47
2022-12-24T07:26:05.584Z,3.80
2022-12-24T07:28:33.715Z,3.70
2022-12-24T07:31:03.414Z,3.60
2022-12-24T07:33:31.558Z,3.90
2022-12-24T07:36:01.097Z,3.70
2022-12-24T07:38:29.614Z,4.07
2022-12-24T07:40:58.237Z,3.43
2022-12-24T07:43:26.706Z,4.63
2022-12-24T07:45:56.535Z,4.30
2022-12-24T07:48:26.296Z,5.70
2022-12-24T07:50:54.274Z,3.97
2022-12-24T07:53:22.503Z,4.10
2022-12-24T07:55:50.576Z,3.20
2022-12-24T07:58:18.813Z,5.07
2022-12-24T08:00:46.951Z,4.33
2022-12-24T08:03:19.132Z,4.80
2022-12-24T08:05:49.239Z,3.60
2022-12-24T08:08:17.139Z,4.00
2022-12-24T08:10:45.905Z,3.90
2022-12-24T08:13:14.169Z,3.60
2022-12-24T08:15:42.264Z,3.50
2022-12-24T08:18:10.496Z,4.43
2022-12-24T08:20:39.768Z,3.83
2022-12-24T08:23:09.689Z,4.17
2022-12-24T08:25:37.700Z,3.53
2022-12-24T08:28:06.686Z,4.17
2022-12-24T08:30:34.757Z,4.40
2022-12-24T08:33:02.999Z,3.67
2022-12-24T08:35:31.486Z,4.30
2022-12-24T08:37:59.457Z,4.10
2022-12-24T08:40:28.957Z,3.70
2022-12-24T08:42:56.924Z,4.63
2022-12-24T08:45:24.883Z,3.90
2022-12-24T08:47:52.934Z,3.93
2022-12-24T08:50:20.810Z,3.30
2022-12-24T08:52:48.672Z,2.90
2022-12-24T08:55:17.407Z,3.73
2022-12-24T08:57:46.577Z,3.50
2022-12-24T09:00:15.657Z,4.50
2022-12-24T09:02:43.625Z,4.80
2022-12-24T09:05:11.792Z,4.00
2022-12-24T09:07:39.717Z,4.30
2022-12-24T09:10:08.915Z,3.13
2022-12-24T09:12:36.765Z,3.50
2022-12-24T09:15:08.128Z,3.90
2022-12-24T09:17:36.553Z,3.53
2022-12-24T09:20:06.904Z,3.60
2022-12-24T09:22:35.890Z,4.10
2022-12-24T09:25:04.739Z,3.93
2022-12-24T09:27:33.060Z,4.10
2022-12-24T09:30:01.091Z,5.50
2022-12-24T09:32:30.370Z,4.70
2022-12-24T09:34:58.280Z,4.50
2022-12-24T09:37:26.187Z,3.60
2022-12-24T09:39:54.161Z,3.60
2022-12-24T09:42:38.407Z,4.10
2022-12-24T09:45:15.623Z,4.30
2022-12-24T09:47:49.311Z,3.73
2022-12-24T09:50:41.040Z,4.30
2022-12-24T09:53:16.816Z,3.40
2022-12-24T09:55:48.370Z,4.37
2022-12-24T09:58:22.663Z,3.53
2022-12-24T10:00:52.417Z,3.40
2022-12-24T10:03:21.784Z,3.90
2022-12-24T10:05:59.870Z,3.80
2022-12-24T10:08:34.576Z,3.70
2022-12-24T10:11:12.694Z,3.93
2022-12-24T10:13:56.544Z,4.20
2022-12-24T10:16:30.854Z,3.47
2022-12-24T10:19:06.398Z,3.80
2022-12-24T10:21:44.365Z,3.83
2022-12-24T10:24:17.401Z,3.33
2022-12-24T10:26:47.211Z,3.93
2022-12-24T10:29:18.748Z,3.37
2022-12-24T10:31:55.041Z,4.27
2022-12-24T10:34:28.035Z,4.07
2022-12-24T10:36:55.997Z,4.13
2022-12-24T10:39:27.030Z,4.20
2022-12-24T10:41:57.735Z,4.27
2022-12-24T10:44:29.081Z,3.67
2022-12-24T10:46:57.325Z,3.53
2022-12-24T10:49:33.514Z,4.03
2022-12-24T10:52:06.200Z,4.37
2022-12-24T10:54:39.351Z,4.20
2022-12-24T10:57:23.670Z,3.73
2022-12-24T10:59:54.766Z,4.10
2022-12-24T11:02:32.041Z,3.70
2022-12-24T11:05:02.402Z,4.70
2022-12-24T11:07:32.361Z,3.37
2022-12-24T11:10:02.532Z,3.93
2022-12-24T11:12:33.223Z,4.50
2022-12-24T11:15:07.427Z,4.30
2022-12-24T11:17:35.455Z,2.90
2022-12-24T11:20:08.311Z,4.10
2022-12-24T11:22:36.388Z,4.10
2022-12-24T11:25:07.239Z,9.47
2022-12-24T11:27:42.014Z,5.27
2022-12-24T11:30:31.372Z,4.60
2022-12-24T11:33:21.863Z,4.13
2022-12-24T11:35:56.610Z,3.97
2022-12-24T11:38:26.102Z,3.80
2022-12-24T11:41:08.059Z,3.87
2022-12-24T11:43:46.583Z,3.93
2022-12-24T11:46:35.634Z,3.50
2022-12-24T11:49:25.120Z,4.13
2022-12-24T11:52:25.343Z,3.60
2022-12-24T11:55:16.225Z,4.00
2022-12-24T11:57:52.807Z,4.10
2022-12-24T12:00:20.839Z,3.90
2022-12-24T12:02:52.470Z,4.80
2022-12-24T12:05:23.237Z,4.20
2022-12-24T12:07:56.019Z,4.53
2022-12-24T12:10:26.844Z,3.10
2022-12-24T12:13:01.933Z,4.77
2022-12-24T12:15:34.900Z,3.90
2022-12-24T12:18:12.470Z,3.47
2022-12-24T12:20:44.422Z,4.33
2022-12-24T12:23:18.567Z,4.03
2022-12-24T12:25:55.307Z,4.10
2022-12-24T12:28:29.376Z,4.03
2022-12-24T12:31:04.014Z,3.40
2022-12-24T12:33:38.900Z,3.90
2022-12-24T12:36:10.823Z,4.00
2022-12-24T12:38:40.641Z,4.77
2022-12-24T12:41:34.994Z,4.13
2022-12-24T12:44:23.323Z,4.20
2022-12-24T12:47:09.340Z,3.63
2022-12-24T12:49:46.693Z,4.30
2022-12-24T12:52:24.908Z,4.30
2022-12-24T12:55:08.393Z,3.40
2022-12-24T12:57:40.039Z,3.93
2022-12-24T13:00:10.813Z,4.30
2022-12-24T13:02:53.292Z,3.87
2022-12-24T13:05:46.597Z,4.27
2022-12-24T13:08:32.575Z,4.80
2022-12-24T13:11:21.860Z,3.70
2022-12-24T13:14:22.094Z,3.50
2022-12-24T13:17:13.752Z,4.10
2022-12-24T13:20:00.974Z,4.40
2022-12-24T13:22:29.476Z,4.70
2022-12-24T13:24:57.961Z,4.83
2022-12-24T13:27:29.236Z,4.00
2022-12-24T13:30:03.660Z,3.97
2022-12-24T13:32:47.997Z,4.00
2022-12-24T13:35:38.942Z,4.33
2022-12-24T13:38:43.696Z,3.63
2022-12-24T13:41:57.401Z,4.43
2022-12-24T13:44:32.804Z,4.97
2022-12-24T13:47:04.991Z,5.20
2022-12-24T13:49:37.614Z,4.40
2022-12-24T13:52:18.728Z,4.47
2022-12-24T13:55:01.490Z,4.40
2022-12-24T13:57:37.401Z,3.87
2022-12-24T14:00:23.595Z,4.30
2022-12-24T14:02:55.985Z,3.87
2022-12-24T14:05:28.726Z,3.80
2022-12-24T14:07:57.679Z,4.27
2022-12-24T14:10:30.270Z,3.57
2022-12-24T14:12:58.537Z,4.80
2022-12-24T14:16:06.035Z,3.87
2022-12-24T14:18:40.688Z,3.40
2022-12-24T14:21:16.454Z,3.47
2022-12-24T14:23:52.309Z,3.30
2022-12-24T14:26:22.835Z,2.80
2022-12-24T14:28:56.459Z,4.80
2022-12-24T14:31:24.984Z,3.80
2022-12-24T14:34:06.854Z,2.87
2022-12-24T14:36:35.824Z,4.00
2022-12-24T14:39:03.984Z,3.37
2022-12-24T14:41:41.953Z,3.07
2022-12-24T14:44:20.933Z,3.93
2022-12-24T14:46:54.568Z,3.60
2022-12-24T14:49:37.743Z,3.50
2022-12-24T14:52:37.843Z,3.57
2022-12-24T14:55:22.322Z,3.00
2022-12-24T14:57:50.203Z,3.80
2022-12-24T15:00:21.396Z,3.83
2022-12-24T15:02:52.048Z,3.30
2022-12-24T15:05:28.523Z,3.57
2022-12-24T15:07:59.779Z,3.10
2022-12-24T15:10:31.776Z,3.60
2022-12-24T15:13:03.892Z,3.57
2022-12-24T15:15:32.374Z,3.20
2022-12-24T15:18:01.054Z,3.50
2022-12-24T15:20:31.925Z,4.00
2022-12-24T15:23:00.225Z,4.00
2022-12-24T15:25:31.041Z,3.37
2022-12-24T15:27:59.333Z,3.00
2022-12-24T15:30:29.473Z,2.73
2022-12-24T15:32:58.952Z,3.20
2022-12-24T15:35:45.433Z,3.53
2022-12-24T15:38:26.546Z,2.70
2022-12-24T15:40:55.714Z,3.10
2022-12-24T15:43:23.900Z,3.20
2022-12-24T15:45:52.073Z,3.27
2022-12-24T15:48:24.620Z,2.70
2022-12-24T15:50:57.280Z,4.53
2022-12-24T15:53:29.339Z,3.17
2022-12-24T15:56:07.453Z,3.20
2022-12-24T15:58:37.586Z,3.53
2022-12-24T16:01:23.878Z,12.93
2022-12-24T16:04:01.494Z,11.90
2022-12-24T16:06:52.619Z,9.20
2022-12-24T16:09:32.666Z,14.00
2022-12-24T16:12:03.416Z,23.97
2022-12-24T16:14:34.373Z,70.10
2022-12-24T16:17:02.353Z,76.07
2022-12-24T16:19:39.748Z,47.77
2022-12-24T16:22:32.662Z,30.50
2022-12-24T16:25:00.885Z,24.77
2022-12-24T16:27:29.197Z,18.10
2022-12-24T16:29:57.098Z,35.70
2022-12-24T16:32:33.191Z,12.90
2022-12-24T16:35:02.350Z,9.90
2022-12-24T16:37:31.612Z,17.17
2022-12-24T16:39:59.659Z,37.73
2022-12-24T16:42:45.076Z,33.17
2022-12-24T16:45:12.985Z,31.70
2022-12-24T16:47:43.328Z,22.17
2022-12-24T16:50:17.424Z,22.57
2022-12-24T16:52:46.739Z,20.90
2022-12-24T16:55:15.684Z,19.73
2022-12-24T16:57:44.760Z,23.80
2022-12-24T17:00:18.172Z,31.87
2022-12-24T17:02:46.293Z,26.73
2022-12-24T17:05:14.723Z,14.27
2022-12-24T17:07:43.938Z,12.30
2022-12-24T17:10:14.860Z,11.60
2022-12-24T17:12:43.393Z,8.70
2022-12-24T17:15:12.068Z,5.57
2022-12-24T17:17:40.081Z,6.47
2022-12-24T17:20:09.723Z,8.83
2022-12-24T17:22:38.158Z,8.63
2022-12-24T17:25:07.241Z,12.97
2022-12-24T17:27:36.560Z,10.90
2022-12-24T17:30:05.138Z,10.17
2022-12-24T17:32:33.517Z,9.00
2022-12-24T17:35:02.311Z,7.03
2022-12-24T17:37:30.949Z,6.60
2022-12-24T17:39:58.984Z,6.47
2022-12-24T17:42:27.562Z,7.23
2022-12-24T17:44:56.801Z,5.17
2022-12-24T17:47:24.688Z,4.40
2022-12-24T17:49:52.721Z,5.50
2022-12-24T17:52:20.650Z,5.00
2022-12-24T17:54:48.557Z,5.00
2022-12-24T17:57:16.427Z,3.80
2022-12-24T17:59:44.322Z,3.90
2022-12-24T18:02:14.180Z,3.83
2022-12-24T18:04:42.603Z,4.33
2022-12-24T18:07:10.517Z,4.60
2022-12-24T18:09:38.635Z,4.97
2022-12-24T18:12:07.035Z,4.07
2022-12-24T18:14:35.031Z,4.37
2022-12-24T18:17:03.032Z,4.60
2022-12-24T18:19:32.311Z,3.50
2022-12-24T18:22:00.191Z,4.40
2022-12-24T18:24:28.577Z,4.93
2022-12-24T18:26:56.642Z,4.73
2022-12-24T18:29:24.588Z,4.73
2022-12-24T18:31:52.680Z,3.83
2022-12-24T18:34:21.450Z,4.30
2022-12-24T18:36:55.058Z,4.43
2022-12-24T18:39:24.206Z,4.63
2022-12-24T18:41:52.330Z,5.00
2022-12-24T18:44:25.591Z,4.60
2022-12-24T18:46:54.469Z,4.90
2022-12-24T18:49:22.480Z,4.40
2022-12-24T18:51:51.923Z,5.67
2022-12-24T18:54:19.852Z,5.17
2022-12-24T18:56:50.568Z,5.17
2022-12-24T18:59:18.978Z,5.00
2022-12-24T19:01:48.683Z,4.40
2022-12-24T19:04:16.947Z,4.77
2022-12-24T19:06:52.480Z,5.40
2022-12-24T19:09:22.893Z,6.37
2022-12-24T19:11:51.179Z,4.80
2022-12-24T19:14:21.020Z,5.40
2022-12-24T19:16:49.262Z,5.33
2022-12-24T19:19:18.738Z,6.73
2022-12-24T19:21:46.921Z,5.97
2022-12-24T19:24:15.405Z,6.40
2022-12-24T19:26:44.942Z,4.83
2022-12-24T19:29:12.984Z,4.67
2022-12-24T19:31:44.386Z,4.70
2022-12-24T19:34:12.478Z,5.53
2022-12-24T19:36:40.877Z,4.30
2022-12-24T19:39:09.061Z,4.30
2022-12-24T19:41:37.741Z,5.07
2022-12-24T19:44:07.404Z,5.07
2022-12-24T19:46:37.000Z,5.10
2022-12-24T19:49:07.216Z,4.57
2022-12-24T19:51:35.888Z,5.20
2022-12-24T19:54:05.929Z,5.13
2022-12-24T19:56:34.749Z,4.50
2022-12-24T19:59:03.377Z,5.17
2022-12-24T20:01:34.701Z,4.47
2022-12-24T20:04:04.396Z,6.70
2022-12-24T20:06:35.014Z,4.40
2022-12-24T20:09:05.840Z,4.80
2022-12-24T20:11:34.660Z,4.50
2022-12-24T20:14:04.583Z,4.73
2022-12-24T20:16:34.525Z,5.20
2022-12-24T20:19:04.693Z,4.50
2022-12-24T20:21:33.197Z,5.03
2022-12-24T20:24:01.173Z,10.00
2022-12-24T20:26:29.983Z,9.10
2022-12-24T20:28:58.356Z,9.13
2022-12-24T20:31:28.591Z,10.87
2022-12-24T20:33:59.508Z,8.27
2022-12-24T20:36:28.742Z,10.73
2022-12-24T20:38:58.009Z,13.80
2022-12-24T20:41:27.886Z,12.00
2022-12-24T20:43:57.854Z,10.50
2022-12-24T20:46:25.932Z,8.47
2022-12-24T20:48:53.935Z,8.60
2022-12-24T20:51:25.484Z,11.80
2022-12-24T20:53:53.850Z,11.17
2022-12-24T20:56:22.171Z,9.73
2022-12-24T20:58:50.138Z,8.67
2022-12-24T21:01:21.063Z,5.30
2022-12-24T21:03:49.125Z,6.00
2022-12-24T21:06:17.899Z,5.50
2022-12-24T21:08:48.899Z,5.53
2022-12-24T21:11:34.370Z,6.47
2022-12-24T21:14:02.911Z,4.50
2022-12-24T21:16:34.294Z,5.33
2022-12-24T21:19:03.065Z,5.87
2022-12-24T21:21:31.041Z,6.00
2022-12-24T21:24:00.464Z,7.00
2022-12-24T21:26:28.528Z,6.57
2022-12-24T21:28:56.709Z,6.30
2022-12-24T21:31:24.724Z,5.70
2022-12-24T21:33:52.802Z,6.40
2022-12-24T21:36:21.070Z,5.70
2022-12-24T21:38:49.114Z,6.80
2022-12-24T21:41:22.805Z,5.67
2022-12-24T21:43:51.123Z,6.00
2022-12-24T21:46:22.985Z,6.10
2022-12-24T21:49:09.612Z,5.20
2022-12-24T21:51:38.801Z,5.63
2022-12-24T21:54:27.173Z,5.43
2022-12-24T21:57:16.875Z,5.70
2022-12-24T21:59:45.006Z,5.03
2022-12-24T22:02:14.642Z,5.70
2022-12-24T22:04:43.348Z,6.27
2022-12-24T22:07:38.852Z,6.07
2022-12-24T22:10:25.399Z,6.07
2022-12-24T22:12:54.811Z,6.90
2022-12-24T22:15:23.001Z,6.33
2022-12-24T22:17:51.024Z,6.03
2022-12-24T22:20:19.052Z,6.00
2022-12-24T22:22:48.297Z,7.00
2022-12-24T22:25:16.425Z,6.43
2022-12-24T22:27:45.087Z,6.93
2022-12-24T22:30:14.987Z,6.87
2022-12-24T22:32:42.871Z,5.77
2022-12-24T22:35:11.964Z,5.00
2022-12-24T22:37:39.867Z,6.63
2022-12-24T22:40:09.149Z,6.43
2022-12-24T22:42:37.280Z,6.30
2022-12-24T22:45:06.257Z,7.43
2022-12-24T22:47:35.901Z,6.47
2022-12-24T22:50:04.431Z,6.77
2022-12-24T22:52:33.231Z,8.13
2022-12-24T22:55:01.132Z,6.63
2022-12-24T22:57:29.013Z,6.90
2022-12-24T22:59:56.838Z,7.80
2022-12-24T23:02:28.495Z,6.97
2022-12-24T23:04:59.202Z,7.27
2022-12-24T23:07:27.157Z,8.03
2022-12-24T23:09:55.052Z,8.17
2022-12-24T23:12:36.921Z,8.67
2022-12-24T23:15:05.061Z,7.90
2022-12-24T23:17:32.930Z,7.20
2022-12-24T23:20:04.071Z,7.00
2022-12-24T23:22:31.947Z,7.90
2022-12-24T23:24:59.827Z,6.73
2022-12-24T23:27:27.818Z,6.80
2022-12-24T23:29:55.751Z,6.87
2022-12-24T23:32:23.805Z,7.40
2022-12-24T23:34:51.817Z,6.67
2022-12-24T23:37:21.017Z,7.03
2022-12-24T23:39:48.900Z,7.03
2022-12-24T23:42:16.773Z,7.70
2022-12-24T23:44:44.698Z,7.60
2022-12-24T23:47:12.750Z,8.23
2022-12-24T23:49:41.422Z,7.00
2022-12-24T23:52:10.298Z,8.77
2022-12-24T23:54:39.963Z,6.77
2022-12-24T23:57:08.378Z,6.77
2022-12-24T23:59:36.442Z,6.77
